sensor_id;sensor_type;location;lat;lon;timestamp;pressure;altitude;pressure_sealevel;temperature;humidity
69982;BME280;57319;56.274;43.980;2023-03-13T00:00:54;98015.41;;;-2.31;67.79
69982;BME280;57319;56.274;43.980;2023-03-13T00:03:20;98008.63;;;-2.35;67.56
69982;BME280;57319;56.274;43.980;2023-03-13T00:05:45;98021.25;;;-2.35;66.48
69982;BME280;57319;56.274;43.980;2023-03-13T00:08:11;98016.06;;;-2.46;65.38
69982;BME280;57319;56.274;43.980;2023-03-13T00:10:37;98011.84;;;-2.49;66.24
69982;BME280;57319;56.274;43.980;2023-03-13T00:13:04;98011.84;;;-2.50;64.70
69982;BME280;57319;56.274;43.980;2023-03-13T00:15:29;98016.00;;;-2.54;64.06
69982;BME280;57319;56.274;43.980;2023-03-13T00:17:55;98017.63;;;-2.59;63.31
69982;BME280;57319;56.274;43.980;2023-03-13T00:20:21;98025.16;;;-2.61;63.06
69982;BME280;57319;56.274;43.980;2023-03-13T00:22:46;98038.53;;;-2.66;62.22
69982;BME280;57319;56.274;43.980;2023-03-13T00:25:12;98042.69;;;-2.68;62.84
69982;BME280;57319;56.274;43.980;2023-03-13T00:27:38;98051.94;;;-2.69;62.95
69982;BME280;57319;56.274;43.980;2023-03-13T00:30:04;98051.09;;;-2.68;63.26
69982;BME280;57319;56.274;43.980;2023-03-13T00:32:29;98061.19;;;-2.68;63.46
69982;BME280;57319;56.274;43.980;2023-03-13T00:34:55;98061.25;;;-2.62;63.92
69982;BME280;57319;56.274;43.980;2023-03-13T00:37:21;98063.72;;;-2.66;63.94
69982;BME280;57319;56.274;43.980;2023-03-13T00:39:47;98068.69;;;-2.69;64.04
69982;BME280;57319;56.274;43.980;2023-03-13T00:42:12;98095.50;;;-2.76;63.77
69982;BME280;57319;56.274;43.980;2023-03-13T00:44:38;98086.09;;;-2.86;63.66
69982;BME280;57319;56.274;43.980;2023-03-13T00:47:03;98087.72;;;-2.90;63.99
69982;BME280;57319;56.274;43.980;2023-03-13T00:49:30;98079.28;;;-2.95;63.83
69982;BME280;57319;56.274;43.980;2023-03-13T00:51:55;98094.41;;;-2.92;64.63
69982;BME280;57319;56.274;43.980;2023-03-13T00:54:21;98104.53;;;-2.89;65.03
69982;BME280;57319;56.274;43.980;2023-03-13T00:56:47;98107.91;;;-2.88;65.16
69982;BME280;57319;56.274;43.980;2023-03-13T00:59:13;98097.84;;;-2.87;65.52
69982;BME280;57319;56.274;43.980;2023-03-13T01:01:38;98097.00;;;-2.87;65.80
69982;BME280;57319;56.274;43.980;2023-03-13T01:04:07;98104.53;;;-2.87;65.66
69982;BME280;57319;56.274;43.980;2023-03-13T01:06:34;98116.34;;;-2.83;66.46
69982;BME280;57319;56.274;43.980;2023-03-13T01:09:02;98120.56;;;-2.84;65.77
69982;BME280;57319;56.274;43.980;2023-03-13T01:11:30;98124.00;;;-2.79;66.77
69982;BME280;57319;56.274;43.980;2023-03-13T01:14:00;98133.13;;;-2.85;66.80
69982;BME280;57319;56.274;43.980;2023-03-13T01:16:28;98131.47;;;-2.83;67.68
69982;BME280;57319;56.274;43.980;2023-03-13T01:18:58;98128.16;;;-2.79;67.45
69982;BME280;57319;56.274;43.980;2023-03-13T01:21:25;98134.09;;;-2.76;67.71
69982;BME280;57319;56.274;43.980;2023-03-13T01:23:51;98139.09;;;-2.79;67.43
69982;BME280;57319;56.274;43.980;2023-03-13T01:26:18;98140.66;;;-2.87;67.35
69982;BME280;57319;56.274;43.980;2023-03-13T01:28:44;98148.13;;;-2.92;68.13
69982;BME280;57319;56.274;43.980;2023-03-13T01:33:40;98144.75;;;-2.94;67.87
69982;BME280;57319;56.274;43.980;2023-03-13T01:36:06;98149.75;;;-2.97;67.94
69982;BME280;57319;56.274;43.980;2023-03-13T01:38:32;98157.41;;;-2.87;68.92
69982;BME280;57319;56.274;43.980;2023-03-13T01:40:57;98158.31;;;-2.85;68.35
69982;BME280;57319;56.274;43.980;2023-03-13T01:43:26;98156.56;;;-2.90;67.43
69982;BME280;57319;56.274;43.980;2023-03-13T01:51:33;98185.00;;;-2.97;66.58
69982;BME280;57319;56.274;43.980;2023-03-13T01:56:57;98183.88;;;-3.13;63.63
69982;BME280;57319;56.274;43.980;2023-03-13T01:59:27;98184.59;;;-3.21;61.86
69982;BME280;57319;56.274;43.980;2023-03-13T02:01:58;98180.41;;;-3.19;62.58
69982;BME280;57319;56.274;43.980;2023-03-13T02:04:26;98198.81;;;-3.24;61.82
69982;BME280;57319;56.274;43.980;2023-03-13T02:06:57;98197.13;;;-3.23;62.33
69982;BME280;57319;56.274;43.980;2023-03-13T02:09:28;98202.22;;;-3.21;61.76
69982;BME280;57319;56.274;43.980;2023-03-13T02:12:13;98204.63;;;-3.26;61.63
69982;BME280;57319;56.274;43.980;2023-03-13T02:14:43;98217.22;;;-3.26;61.81
69982;BME280;57319;56.274;43.980;2023-03-13T02:17:09;98200.25;;;-3.38;60.61
69982;BME280;57319;56.274;43.980;2023-03-13T02:19:42;98209.53;;;-3.34;60.20
69982;BME280;57319;56.274;43.980;2023-03-13T02:24:45;98213.63;;;-3.39;60.11
69982;BME280;57319;56.274;43.980;2023-03-13T02:27:14;98212.91;;;-3.32;61.12
69982;BME280;57319;56.274;43.980;2023-03-13T02:29:40;98222.16;;;-3.32;59.81
69982;BME280;57319;56.274;43.980;2023-03-13T02:32:07;98238.97;;;-3.30;60.68
69982;BME280;57319;56.274;43.980;2023-03-13T02:34:34;98230.59;;;-3.27;61.43
69982;BME280;57319;56.274;43.980;2023-03-13T02:37:04;98228.22;;;-3.21;60.95
69982;BME280;57319;56.274;43.980;2023-03-13T02:39:32;98230.47;;;-3.35;60.44
69982;BME280;57319;56.274;43.980;2023-03-13T02:41:59;98245.66;;;-3.30;61.00
69982;BME280;57319;56.274;43.980;2023-03-13T02:44:26;98244.88;;;-3.26;61.67
69982;BME280;57319;56.274;43.980;2023-03-13T02:46:52;98241.59;;;-3.24;61.55
69982;BME280;57319;56.274;43.980;2023-03-13T02:49:28;98239.88;;;-3.25;62.06
69982;BME280;57319;56.274;43.980;2023-03-13T02:51:57;98253.34;;;-3.22;62.00
69982;BME280;57319;56.274;43.980;2023-03-13T02:54:29;98256.59;;;-3.28;62.04
69982;BME280;57319;56.274;43.980;2023-03-13T02:56:57;98258.28;;;-3.27;62.10
69982;BME280;57319;56.274;43.980;2023-03-13T02:59:25;98266.59;;;-3.31;62.35
69982;BME280;57319;56.274;43.980;2023-03-13T03:01:51;98268.28;;;-3.32;62.73
69982;BME280;57319;56.274;43.980;2023-03-13T03:04:21;98259.13;;;-3.28;63.51
69982;BME280;57319;56.274;43.980;2023-03-13T03:06:47;98275.81;;;-3.32;63.97
69982;BME280;57319;56.274;43.980;2023-03-13T03:09:14;98274.97;;;-3.34;63.89
69982;BME280;57319;56.274;43.980;2023-03-13T03:11:39;98284.16;;;-3.34;64.36
69982;BME280;57319;56.274;43.980;2023-03-13T03:14:05;98281.88;;;-3.22;65.23
69982;BME280;57319;56.274;43.980;2023-03-13T03:16:31;98285.19;;;-3.23;64.46
69982;BME280;57319;56.274;43.980;2023-03-13T03:18:57;98292.84;;;-3.18;64.71
69982;BME280;57319;56.274;43.980;2023-03-13T03:21:22;98293.69;;;-3.18;65.21
69982;BME280;57319;56.274;43.980;2023-03-13T03:23:49;98305.56;;;-3.11;65.43
69982;BME280;57319;56.274;43.980;2023-03-13T03:26:14;98306.38;;;-3.13;65.74
69982;BME280;57319;56.274;43.980;2023-03-13T03:28:40;98308.94;;;-3.12;65.45
69982;BME280;57319;56.274;43.980;2023-03-13T03:31:07;98311.53;;;-3.05;66.29
69982;BME280;57319;56.274;43.980;2023-03-13T03:33:33;98318.31;;;-3.03;66.78
69982;BME280;57319;56.274;43.980;2023-03-13T03:36:05;98330.09;;;-3.00;67.16
69982;BME280;57319;56.274;43.980;2023-03-13T03:38:32;98324.06;;;-3.10;66.65
69982;BME280;57319;56.274;43.980;2023-03-13T03:40:58;98328.09;;;-3.18;66.82
69982;BME280;57319;56.274;43.980;2023-03-13T03:43:24;98331.41;;;-3.21;67.07
69982;BME280;57319;56.274;43.980;2023-03-13T03:45:50;98328.09;;;-3.18;67.16
69982;BME280;57319;56.274;43.980;2023-03-13T03:48:15;98323.00;;;-3.21;66.27
69982;BME280;57319;56.274;43.980;2023-03-13T03:50:41;98329.69;;;-3.22;66.37
69982;BME280;57319;56.274;43.980;2023-03-13T03:53:07;98333.00;;;-3.25;66.05
69982;BME280;57319;56.274;43.980;2023-03-13T03:55:33;98339.53;;;-3.33;65.27
69982;BME280;57319;56.274;43.980;2023-03-13T03:57:58;98349.44;;;-3.42;65.11
69982;BME280;57319;56.274;43.980;2023-03-13T04:00:24;98348.44;;;-3.50;64.65
69982;BME280;57319;56.274;43.980;2023-03-13T04:02:50;98354.06;;;-3.61;64.07
69982;BME280;57319;56.274;43.980;2023-03-13T04:05:15;98361.44;;;-3.68;65.23
69982;BME280;57319;56.274;43.980;2023-03-13T04:07:41;98352.22;;;-3.69;64.59
69982;BME280;57319;56.274;43.980;2023-03-13T04:10:07;98363.06;;;-3.72;64.68
69982;BME280;57319;56.274;43.980;2023-03-13T04:12:33;98363.91;;;-3.71;64.91
69982;BME280;57319;56.274;43.980;2023-03-13T04:14:58;98375.63;;;-3.72;65.36
69982;BME280;57319;56.274;43.980;2023-03-13T04:17:24;98381.53;;;-3.70;66.03
69982;BME280;57319;56.274;43.980;2023-03-13T04:19:50;98381.81;;;-3.58;66.58
69982;BME280;57319;56.274;43.980;2023-03-13T04:22:16;98392.81;;;-3.52;65.60
69982;BME280;57319;56.274;43.980;2023-03-13T04:24:41;98406.94;;;-3.58;64.63
69982;BME280;57319;56.274;43.980;2023-03-13T04:27:07;98412.56;;;-3.71;65.12
69982;BME280;57319;56.274;43.980;2023-03-13T04:29:33;98420.88;;;-3.73;65.07
69982;BME280;57319;56.274;43.980;2023-03-13T04:31:59;98425.38;;;-3.95;62.75
69982;BME280;57319;56.274;43.980;2023-03-13T04:34:25;98455.59;;;-4.27;62.38
69982;BME280;57319;56.274;43.980;2023-03-13T04:36:50;98432.44;;;-4.49;62.45
69982;BME280;57319;56.274;43.980;2023-03-13T04:39:16;98438.94;;;-4.55;63.58
69982;BME280;57319;56.274;43.980;2023-03-13T04:41:42;98446.53;;;-4.54;63.11
69982;BME280;57319;56.274;43.980;2023-03-13T04:44:07;98455.59;;;-4.59;62.66
69982;BME280;57319;56.274;43.980;2023-03-13T04:46:33;98462.06;;;-4.67;62.41
69982;BME280;57319;56.274;43.980;2023-03-13T04:48:59;98445.34;;;-4.67;62.49
69982;BME280;57319;56.274;43.980;2023-03-13T04:51:25;98459.31;;;-4.77;62.73
69982;BME280;57319;56.274;43.980;2023-03-13T04:53:50;98474.44;;;-4.75;63.41
69982;BME280;57319;56.274;43.980;2023-03-13T04:56:22;98482.16;;;-4.67;62.94
69982;BME280;57319;56.274;43.980;2023-03-13T04:58:48;98466.16;;;-4.71;62.44
69982;BME280;57319;56.274;43.980;2023-03-13T05:01:14;98481.16;;;-4.74;61.76
69982;BME280;57319;56.274;43.980;2023-03-13T05:03:40;98482.03;;;-4.72;62.15
69982;BME280;57319;56.274;43.980;2023-03-13T05:06:05;98489.84;;;-4.63;62.55
69982;BME280;57319;56.274;43.980;2023-03-13T05:08:31;98494.94;;;-4.60;61.82
69982;BME280;57319;56.274;43.980;2023-03-13T05:10:57;98485.72;;;-4.59;61.64
69982;BME280;57319;56.274;43.980;2023-03-13T05:13:22;98505.16;;;-4.53;61.38
69982;BME280;57319;56.274;43.980;2023-03-13T05:15:48;98502.50;;;-4.58;60.90
69982;BME280;57319;56.274;43.980;2023-03-13T05:18:14;98499.25;;;-4.54;60.83
69982;BME280;57319;56.274;43.980;2023-03-13T05:20:39;98499.41;;;-4.49;61.53
69982;BME280;57319;56.274;43.980;2023-03-13T05:23:05;98503.06;;;-4.38;62.39
69982;BME280;57319;56.274;43.980;2023-03-13T05:25:31;98510.63;;;-4.36;61.07
69982;BME280;57319;56.274;43.980;2023-03-13T05:27:56;98515.13;;;-4.24;62.00
69982;BME280;57319;56.274;43.980;2023-03-13T05:30:22;98510.25;;;-4.18;60.72
69982;BME280;57319;56.274;43.980;2023-03-13T05:32:47;98512.69;;;-4.21;60.90
69982;BME280;57319;56.274;43.980;2023-03-13T05:35:13;98519.34;;;-4.23;60.39
69982;BME280;57319;56.274;43.980;2023-03-13T05:37:39;98535.38;;;-4.18;61.04
69982;BME280;57319;56.274;43.980;2023-03-13T05:40:05;98529.72;;;-4.11;60.82
69982;BME280;57319;56.274;43.980;2023-03-13T05:42:30;98537.84;;;-4.21;60.46
69982;BME280;57319;56.274;43.980;2023-03-13T05:44:56;98536.31;;;-4.16;60.33
69982;BME280;57319;56.274;43.980;2023-03-13T05:47:22;98546.25;;;-4.19;60.07
69982;BME280;57319;56.274;43.980;2023-03-13T05:49:47;98547.16;;;-4.17;61.03
69982;BME280;57319;56.274;43.980;2023-03-13T05:52:13;98559.84;;;-4.13;61.37
69982;BME280;57319;56.274;43.980;2023-03-13T05:54:38;98559.13;;;-4.07;60.59
69982;BME280;57319;56.274;43.980;2023-03-13T05:57:04;98557.78;;;-3.96;61.30
69982;BME280;57319;56.274;43.980;2023-03-13T05:59:30;98565.53;;;-3.86;60.80
69982;BME280;57319;56.274;43.980;2023-03-13T06:01:55;98568.22;;;-3.80;60.92
69982;BME280;57319;56.274;43.980;2023-03-13T06:04:21;98573.13;;;-3.85;59.61
69982;BME280;57319;56.274;43.980;2023-03-13T06:06:47;98574.03;;;-3.83;60.05
69982;BME280;57319;56.274;43.980;2023-03-13T06:09:12;98588.41;;;-3.77;60.15
69982;BME280;57319;56.274;43.980;2023-03-13T06:11:38;98619.44;;;-3.77;60.19
69982;BME280;57319;56.274;43.980;2023-03-13T06:14:03;98596.41;;;-3.92;59.90
69982;BME280;57319;56.274;43.980;2023-03-13T06:16:29;98606.03;;;-3.77;60.56
69982;BME280;57319;56.274;43.980;2023-03-13T06:18:55;98609.66;;;-3.66;59.82
69982;BME280;57319;56.274;43.980;2023-03-13T06:21:21;98601.38;;;-3.62;58.49
69982;BME280;57319;56.274;43.980;2023-03-13T06:23:46;98604.63;;;-3.66;58.78
69982;BME280;57319;56.274;43.980;2023-03-13T06:26:12;98613.16;;;-3.93;59.48
69982;BME280;57319;56.274;43.980;2023-03-13T06:28:39;98611.97;;;-4.05;59.25
69982;BME280;57319;56.274;43.980;2023-03-13T06:31:06;98610.72;;;-3.89;59.02
69982;BME280;57319;56.274;43.980;2023-03-13T06:33:32;98616.47;;;-3.62;57.51
69982;BME280;57319;56.274;43.980;2023-03-13T06:36:02;98621.88;;;-3.13;56.90
69982;BME280;57319;56.274;43.980;2023-03-13T06:38:29;98651.56;;;-2.99;55.12
69982;BME280;57319;56.274;43.980;2023-03-13T06:40:55;98631.34;;;-3.02;57.13
69982;BME280;57319;56.274;43.980;2023-03-13T06:43:20;98640.44;;;-3.09;55.56
69982;BME280;57319;56.274;43.980;2023-03-13T06:45:46;98644.63;;;-3.08;56.37
69982;BME280;57319;56.274;43.980;2023-03-13T06:48:13;98642.00;;;-3.13;56.38
69982;BME280;57319;56.274;43.980;2023-03-13T06:50:40;98636.94;;;-3.14;56.76
69982;BME280;57319;56.274;43.980;2023-03-13T06:53:06;98653.63;;;-3.18;56.30
69982;BME280;57319;56.274;43.980;2023-03-13T06:55:32;98649.34;;;-3.22;56.56
69982;BME280;57319;56.274;43.980;2023-03-13T06:57:57;98672.78;;;-3.23;57.80
69982;BME280;57319;56.274;43.980;2023-03-13T07:00:23;98656.28;;;-3.13;56.84
69982;BME280;57319;56.274;43.980;2023-03-13T07:02:50;98659.97;;;-2.99;56.96
69982;BME280;57319;56.274;43.980;2023-03-13T07:05:16;98670.53;;;-3.12;57.17
69982;BME280;57319;56.274;43.980;2023-03-13T07:07:42;98671.22;;;-3.19;57.06
69982;BME280;57319;56.274;43.980;2023-03-13T07:10:09;98698.59;;;-3.32;56.71
69982;BME280;57319;56.274;43.980;2023-03-13T07:12:35;98704.00;;;-3.50;55.95
69982;BME280;57319;56.274;43.980;2023-03-13T07:15:02;98709.31;;;-3.39;56.34
69982;BME280;57319;56.274;43.980;2023-03-13T07:17:28;98715.13;;;-3.42;55.49
69982;BME280;57319;56.274;43.980;2023-03-13T07:19:54;98705.75;;;-3.47;55.75
69982;BME280;57319;56.274;43.980;2023-03-13T07:22:20;98713.19;;;-3.18;55.70
69982;BME280;57319;56.274;43.980;2023-03-13T07:24:45;98709.19;;;-3.12;55.94
69982;BME280;57319;56.274;43.980;2023-03-13T07:27:11;98715.16;;;-3.07;54.74
69982;BME280;57319;56.274;43.980;2023-03-13T07:29:37;98736.59;;;-3.22;55.34
69982;BME280;57319;56.274;43.980;2023-03-13T07:32:03;98714.50;;;-3.01;55.97
69982;BME280;57319;56.274;43.980;2023-03-13T07:34:29;98718.41;;;-2.77;54.39
69982;BME280;57319;56.274;43.980;2023-03-13T07:36:54;98716.59;;;-2.46;54.07
69982;BME280;57319;56.274;43.980;2023-03-13T07:39:20;98735.13;;;-2.44;54.30
69982;BME280;57319;56.274;43.980;2023-03-13T07:41:46;98727.66;;;-2.40;53.47
69982;BME280;57319;56.274;43.980;2023-03-13T07:44:11;98741.91;;;-2.43;51.90
69982;BME280;57319;56.274;43.980;2023-03-13T07:46:37;98738.81;;;-2.30;51.74
69982;BME280;57319;56.274;43.980;2023-03-13T07:49:03;98749.50;;;-2.40;52.89
69982;BME280;57319;56.274;43.980;2023-03-13T07:51:28;98756.13;;;-2.44;53.61
69982;BME280;57319;56.274;43.980;2023-03-13T07:53:54;98753.19;;;-2.26;52.50
69982;BME280;57319;56.274;43.980;2023-03-13T07:56:22;98743.34;;;-2.15;53.76
69982;BME280;57319;56.274;43.980;2023-03-13T07:58:48;98758.16;;;-2.29;53.26
69982;BME280;57319;56.274;43.980;2023-03-13T08:01:17;98774.56;;;-2.10;53.36
69982;BME280;57319;56.274;43.980;2023-03-13T08:03:43;98770.50;;;-2.03;54.04
69982;BME280;57319;56.274;43.980;2023-03-13T08:06:12;98771.97;;;-2.13;52.44
69982;BME280;57319;56.274;43.980;2023-03-13T08:08:38;98770.38;;;-2.09;52.79
69982;BME280;57319;56.274;43.980;2023-03-13T08:11:13;98792.03;;;-2.17;51.39
69982;BME280;57319;56.274;43.980;2023-03-13T08:13:39;98794.28;;;-2.30;52.49
69982;BME280;57319;56.274;43.980;2023-03-13T08:16:16;98801.88;;;-2.28;53.40
69982;BME280;57319;56.274;43.980;2023-03-13T08:18:46;98796.47;;;-2.44;52.95
69982;BME280;57319;56.274;43.980;2023-03-13T08:21:17;98810.84;;;-2.40;52.85
69982;BME280;57319;56.274;43.980;2023-03-13T08:23:43;98811.34;;;-2.19;51.67
69982;BME280;57319;56.274;43.980;2023-03-13T08:26:12;98811.28;;;-2.21;51.99
69982;BME280;57319;56.274;43.980;2023-03-13T08:28:38;98814.88;;;-2.11;51.07
69982;BME280;57319;56.274;43.980;2023-03-13T08:31:13;98820.16;;;-2.00;49.62
69982;BME280;57319;56.274;43.980;2023-03-13T08:33:41;98830.50;;;-1.90;50.90
69982;BME280;57319;56.274;43.980;2023-03-13T08:36:21;98836.53;;;-2.19;51.08
69982;BME280;57319;56.274;43.980;2023-03-13T08:38:48;98834.16;;;-2.48;51.70
69982;BME280;57319;56.274;43.980;2023-03-13T08:41:20;98843.31;;;-2.52;51.35
69982;BME280;57319;56.274;43.980;2023-03-13T08:43:46;98831.19;;;-2.33;51.93
69982;BME280;57319;56.274;43.980;2023-03-13T08:46:13;98848.66;;;-2.40;50.48
69982;BME280;57319;56.274;43.980;2023-03-13T08:48:39;98847.75;;;-2.43;49.74
69982;BME280;57319;56.274;43.980;2023-03-13T08:51:07;98842.88;;;-2.35;50.18
69982;BME280;57319;56.274;43.980;2023-03-13T08:53:34;98861.97;;;-2.45;50.05
69982;BME280;57319;56.274;43.980;2023-03-13T08:56:00;98854.47;;;-2.42;50.51
69982;BME280;57319;56.274;43.980;2023-03-13T08:58:27;98868.66;;;-2.47;49.84
69982;BME280;57319;56.274;43.980;2023-03-13T09:00:53;98871.47;;;-2.67;50.75
69982;BME280;57319;56.274;43.980;2023-03-13T09:03:19;98877.25;;;-2.71;50.74
69982;BME280;57319;56.274;43.980;2023-03-13T09:05:45;98867.28;;;-2.68;51.05
69982;BME280;57319;56.274;43.980;2023-03-13T09:08:13;98867.69;;;-2.51;50.16
69982;BME280;57319;56.274;43.980;2023-03-13T09:10:39;98881.06;;;-2.53;50.46
69982;BME280;57319;56.274;43.980;2023-03-13T09:13:05;98869.97;;;-2.60;50.35
69982;BME280;57319;56.274;43.980;2023-03-13T09:15:31;98876.56;;;-2.65;50.51
69982;BME280;57319;56.274;43.980;2023-03-13T09:17:56;98884.13;;;-2.65;51.42
69982;BME280;57319;56.274;43.980;2023-03-13T09:20:22;98878.75;;;-2.46;50.87
69982;BME280;57319;56.274;43.980;2023-03-13T09:22:47;98880.22;;;-2.20;50.49
69982;BME280;57319;56.274;43.980;2023-03-13T09:25:13;98886.69;;;-1.95;48.81
69982;BME280;57319;56.274;43.980;2023-03-13T09:27:39;98892.38;;;-2.04;50.61
69982;BME280;57319;56.274;43.980;2023-03-13T09:30:05;98889.81;;;-2.06;49.77
69982;BME280;57319;56.274;43.980;2023-03-13T09:32:32;98886.38;;;-2.08;46.82
69982;BME280;57319;56.274;43.980;2023-03-13T09:34:57;98902.75;;;-2.27;47.50
69982;BME280;57319;56.274;43.980;2023-03-13T09:37:23;98901.41;;;-2.47;48.30
69982;BME280;57319;56.274;43.980;2023-03-13T09:39:49;98901.34;;;-2.49;48.68
69982;BME280;57319;56.274;43.980;2023-03-13T09:42:20;98914.75;;;-2.51;49.85
69982;BME280;57319;56.274;43.980;2023-03-13T09:45:13;98907.50;;;-2.39;49.75
69982;BME280;57319;56.274;43.980;2023-03-13T09:47:45;98908.72;;;-2.23;49.32
69982;BME280;57319;56.274;43.980;2023-03-13T09:50:28;98908.88;;;-1.82;49.05
69982;BME280;57319;56.274;43.980;2023-03-13T09:53:00;98922.66;;;-2.02;48.81
69982;BME280;57319;56.274;43.980;2023-03-13T09:55:32;98919.97;;;-2.10;49.04
69982;BME280;57319;56.274;43.980;2023-03-13T09:58:09;98917.28;;;-2.16;48.46
69982;BME280;57319;56.274;43.980;2023-03-13T10:00:40;98923.50;;;-1.67;49.22
69982;BME280;57319;56.274;43.980;2023-03-13T10:05:37;98925.25;;;-1.26;47.64
69982;BME280;57319;56.274;43.980;2023-03-13T10:08:12;98927.44;;;-1.02;47.14
69982;BME280;57319;56.274;43.980;2023-03-13T10:13:21;98918.59;;;-0.80;44.97
69982;BME280;57319;56.274;43.980;2023-03-13T10:15:53;98927.97;;;-1.17;45.84
69982;BME280;57319;56.274;43.980;2023-03-13T10:18:22;98933.88;;;-1.16;46.92
69982;BME280;57319;56.274;43.980;2023-03-13T10:20:51;98948.97;;;-1.20;47.10
69982;BME280;57319;56.274;43.980;2023-03-13T10:23:37;98942.09;;;-1.25;46.63
69982;BME280;57319;56.274;43.980;2023-03-13T10:26:04;98940.59;;;-0.76;46.48
69982;BME280;57319;56.274;43.980;2023-03-13T10:28:30;98941.19;;;-0.45;45.07
69982;BME280;57319;56.274;43.980;2023-03-13T10:31:12;98936.34;;;-0.34;44.54
69982;BME280;57319;56.274;43.980;2023-03-13T10:33:42;98934.88;;;-0.20;44.26
69982;BME280;57319;56.274;43.980;2023-03-13T10:36:10;98943.53;;;-0.08;43.08
69982;BME280;57319;56.274;43.980;2023-03-13T10:38:50;98961.28;;;-0.05;42.98
69982;BME280;57319;56.274;43.980;2023-03-13T10:41:32;98953.56;;;-0.11;43.87
69982;BME280;57319;56.274;43.980;2023-03-13T10:44:03;98969.13;;;0.10;42.11
69982;BME280;57319;56.274;43.980;2023-03-13T10:46:32;98963.91;;;0.01;41.56
69982;BME280;57319;56.274;43.980;2023-03-13T10:49:03;98963.78;;;-0.08;40.96
69982;BME280;57319;56.274;43.980;2023-03-13T10:51:34;98973.34;;;-0.38;41.40
69982;BME280;57319;56.274;43.980;2023-03-13T10:54:12;98957.16;;;0.00;42.22
69982;BME280;57319;56.274;43.980;2023-03-13T10:56:38;98980.59;;;0.40;39.92
69982;BME280;57319;56.274;43.980;2023-03-13T10:59:18;98979.69;;;0.37;39.65
69982;BME280;57319;56.274;43.980;2023-03-13T11:01:46;98968.19;;;0.57;40.78
69982;BME280;57319;56.274;43.980;2023-03-13T11:04:34;98973.25;;;0.59;41.28
69982;BME280;57319;56.274;43.980;2023-03-13T11:07:13;98978.13;;;1.03;41.38
69982;BME280;57319;56.274;43.980;2023-03-13T11:09:39;98985.00;;;1.12;40.88
69982;BME280;57319;56.274;43.980;2023-03-13T11:12:10;98974.28;;;1.34;40.94
69982;BME280;57319;56.274;43.980;2023-03-13T11:14:38;98984.75;;;1.62;37.73
69982;BME280;57319;56.274;43.980;2023-03-13T11:17:14;98981.53;;;1.77;37.13
69982;BME280;57319;56.274;43.980;2023-03-13T11:19:55;98977.66;;;2.13;35.57
69982;BME280;57319;56.274;43.980;2023-03-13T11:25:35;98990.53;;;4.63;32.71
69982;BME280;57319;56.274;43.980;2023-03-13T11:28:06;99002.41;;;4.49;32.93
69982;BME280;57319;56.274;43.980;2023-03-13T11:31:02;99003.00;;;3.33;33.15
69982;BME280;57319;56.274;43.980;2023-03-13T11:36:28;99009.84;;;3.42;33.68
69982;BME280;57319;56.274;43.980;2023-03-13T11:44:29;99005.66;;;3.61;32.92
69982;BME280;57319;56.274;43.980;2023-03-13T11:47:07;99016.03;;;2.49;34.60
69982;BME280;57319;56.274;43.980;2023-03-13T11:49:53;99024.06;;;2.03;36.08
69982;BME280;57319;56.274;43.980;2023-03-13T11:52:29;99029.53;;;4.00;32.63
69982;BME280;57319;56.274;43.980;2023-03-13T12:00:41;99043.75;;;3.41;34.15
69982;BME280;57319;56.274;43.980;2023-03-13T12:05:54;99044.97;;;1.77;35.46
69982;BME280;57319;56.274;43.980;2023-03-13T12:08:27;99041.63;;;1.14;36.67
69982;BME280;57319;56.274;43.980;2023-03-13T12:11:00;99046.72;;;2.74;33.73
69982;BME280;57319;56.274;43.980;2023-03-13T12:13:33;99019.28;;;5.30;29.29
69982;BME280;57319;56.274;43.980;2023-03-13T12:16:06;99027.50;;;6.00;28.76
69982;BME280;57319;56.274;43.980;2023-03-13T12:18:37;99032.50;;;7.24;28.03
69982;BME280;57319;56.274;43.980;2023-03-13T12:21:20;99028.78;;;6.65;27.19
69982;BME280;57319;56.274;43.980;2023-03-13T12:29:07;99061.69;;;2.43;33.22
69982;BME280;57319;56.274;43.980;2023-03-13T12:31:37;99053.59;;;1.23;35.46
69982;BME280;57319;56.274;43.980;2023-03-13T12:34:33;99050.47;;;1.44;35.43
69982;BME280;57319;56.274;43.980;2023-03-13T12:37:11;99074.84;;;1.32;36.52
69982;BME280;57319;56.274;43.980;2023-03-13T12:39:55;99074.66;;;0.62;36.48
69982;BME280;57319;56.274;43.980;2023-03-13T12:45:06;99068.09;;;2.02;36.70
69982;BME280;57319;56.274;43.980;2023-03-13T12:50:31;99066.09;;;4.27;31.71
69982;BME280;57319;56.274;43.980;2023-03-13T12:53:18;99065.22;;;5.33;30.74
69982;BME280;57319;56.274;43.980;2023-03-13T12:58:53;99075.41;;;4.11;32.40
69982;BME280;57319;56.274;43.980;2023-03-13T13:03:56;99078.34;;;3.14;32.51
69982;BME280;57319;56.274;43.980;2023-03-13T13:06:23;99076.59;;;3.04;31.83
69982;BME280;57319;56.274;43.980;2023-03-13T13:16:45;99096.28;;;1.56;35.63
69982;BME280;57319;56.274;43.980;2023-03-13T13:25:01;99108.41;;;1.16;38.50
69982;BME280;57319;56.274;43.980;2023-03-13T13:27:44;99106.63;;;2.50;37.04
69982;BME280;57319;56.274;43.980;2023-03-13T13:35:44;99111.13;;;1.93;37.36
69982;BME280;57319;56.274;43.980;2023-03-13T13:43:46;99103.03;;;2.29;36.58
69982;BME280;57319;56.274;43.980;2023-03-13T13:46:29;99113.50;;;1.77;35.79
69982;BME280;57319;56.274;43.980;2023-03-13T13:51:31;99129.03;;;0.82;40.36
69982;BME280;57319;56.274;43.980;2023-03-13T13:54:29;99125.81;;;0.44;43.20
69982;BME280;57319;56.274;43.980;2023-03-13T13:57:00;99119.25;;;0.54;42.35
69982;BME280;57319;56.274;43.980;2023-03-13T13:59:39;99125.28;;;0.16;42.89
69982;BME280;57319;56.274;43.980;2023-03-13T14:04:51;99126.97;;;-0.29;44.54
69982;BME280;57319;56.274;43.980;2023-03-13T14:10:15;99136.63;;;-0.49;45.20
69982;BME280;57319;56.274;43.980;2023-03-13T14:12:46;99141.47;;;-0.58;45.34
69982;BME280;57319;56.274;43.980;2023-03-13T14:15:24;99142.72;;;-0.77;45.03
69982;BME280;57319;56.274;43.980;2023-03-13T14:23:14;99148.31;;;-1.26;46.55
69982;BME280;57319;56.274;43.980;2023-03-13T14:25:48;99144.69;;;-1.37;46.81
69982;BME280;57319;56.274;43.980;2023-03-13T14:28:18;99152.81;;;-1.47;47.51
69982;BME280;57319;56.274;43.980;2023-03-13T14:30:44;99154.28;;;-1.56;47.95
69982;BME280;57319;56.274;43.980;2023-03-13T14:33:11;99155.06;;;-1.58;49.86